Zarling — WDD7883 — position and weather

sailwx.info

Track history (hours):
 
Tides and Currents Weather Stations Pressure Air Temp Water Temp Dewpoint Dewpoint Depression Visibility Wind Speed Wind Dir Waves Ship Positions

Zarling

Owner: Clean Rivers Co-op, Portland, OR. More information available from US FCC via Universal Licensing System.

Last reported at 2015-Feb-10 16:33 UTC. Time now 2015-Mar-05 22:33 UTC.
Position N 45°52' W 122°48'.
Warning: this ship's position is 23 days out of date.

Length 12 m.

Type: Pollution control. MMSI: 3699126.

Date/timePositionNaut miles runAvg speedWind from/ knotsBaromVisibWave heightAir tempDewpointWater temp
2015-Feb-10 16:33N 45°52' W 122°48'1468.6
2015-Feb-10 16:20N 46°05' W 122°56'29151.1
2015-Feb-10 16:09N 45°37' W 122°48'434287.0
2015-Feb-10 16:08N 46°12' W 123°23'47697.6
2015-Feb-10 16:04N 45°34' W 122°43'0 0.0
2015-Feb-10 15:31N 45°34' W 122°43'322851.5
2015-Feb-10 15:30N 46°05' W 122°56'141531.3
2015-Feb-10 15:30N 45°52' W 122°48'15145.1
2015-Feb-10 15:24N 45°37' W 122°48'43268.9
2015-Feb-10 15:14N 46°12' W 123°23'4766.1
2015-Feb-10 14:31N 45°34' W 122°43'322997.7
2015-Feb-10 14:30N 46°05' W 122°56'141407.1
2015-Feb-10 14:30N 45°52' W 122°48'1598.1
2015-Feb-10 14:21N 45°37' W 122°48'4353.0
2015-Feb-10 13:32N 46°12' W 123°23'20718.5
2015-Feb-10 13:30N 46°05' W 122°56'32363.1
2015-Feb-10 13:25N 45°34' W 122°43'18850.4
2015-Feb-10 13:24N 45°52' W 122°48'15291.7
2015-Feb-10 13:21N 45°37' W 122°48'  
2015-Feb-04 05:19N 45°33' W 122°42'0 0.0
2015-Feb-04 04:31N 45°33' W 122°42'6108.2
2015-Feb-04 04:28N 45°37' W 122°48'1599.4
2015-Feb-04 04:19N 45°52' W 122°48'1417.0
2015-Feb-04 03:28N 46°05' W 122°56'34137.3
2015-Feb-04 03:13N 45°33' W 122°42'6 6.9
2015-Feb-04 02:22N 45°37' W 122°48'2934406.6
2015-Feb-04 02:22N 46°05' W 122°56'14299.1
2015-Feb-04 02:19N 45°52' W 122°48'15 1.9
2015-Feb-03 18:28N 45°37' W 122°48'15299.9
2015-Feb-03 18:25N 45°52' W 122°48'14275.4
2015-Feb-03 18:22N 46°05' W 122°56'3439.8
2015-Feb-03 17:31N 45°33' W 122°42'195800.1
2015-Feb-03 17:31N 45°52' W 122°48'15296.5
2015-Feb-03 17:28N 45°37' W 122°48'2917199.7
2015-Feb-03 17:28N 46°05' W 122°56'3435.6
2015-Feb-03 16:31N 45°33' W 122°42'198700.2
2015-Feb-03 16:31N 45°52' W 122°48'14275.5
2015-Feb-03 16:28N 46°05' W 122°56'29291.5
2015-Feb-03 16:22N 45°37' W 122°48'6 6.9
2015-Feb-03 15:31N 45°33' W 122°42'1911603.7
2015-Feb-03 15:31N 45°52' W 122°48'15298.4
2015-Feb-03 15:28N 45°37' W 122°48'2910322.0
2015-Feb-03 15:28N 46°05' W 122°56'29 0.9
2015-Feb-02 07:32N 45°37' W 122°48'294691.8
2015-Feb-02 07:31N 46°05' W 122°56'1459.4
2015-Feb-02 07:17N 45°52' W 122°48'1519.7
2015-Feb-02 06:31N 45°37' W 122°48'295432.6
2015-Feb-02 06:31N 46°05' W 122°56'1459.3
2015-Feb-02 06:17N 45°52' W 122°48'1519.8
2015-Feb-02 05:32N 45°37' W 122°48'294486.9
2015-Feb-02 05:31N 46°05' W 122°56'14335.9
2015-Feb-02 05:29N 45°52' W 122°48'1415.1
2015-Feb-02 04:31N 46°05' W 122°56'29308.1
2015-Feb-02 04:26N 45°37' W 122°48'15298.4
2015-Feb-02 04:23N 45°52' W 122°48'0 0.0
2015-Feb-02 03:29N 45°52' W 122°48'14249.1
2015-Feb-02 03:25N 46°05' W 122°56'34725.3
2015-Feb-02 03:22N 45°33' W 122°42'640.0
2015-Feb-02 03:14N 45°37' W 122°48'0 0.0
2015-Feb-02 02:32N 45°37' W 122°48'293686.4
2015-Feb-02 02:31N 46°05' W 122°56'34725.3
2015-Feb-02 02:28N 45°33' W 122°42'19200.0
2015-Feb-02 02:23N 45°52' W 122°48'1517.4
2015-Feb-02 01:32N 45°37' W 122°48'294487.8
2015-Feb-02 01:31N 46°05' W 122°56'14340.3
2015-Feb-02 01:29N 45°52' W 122°48'195353.9
2015-Feb-02 01:28N 45°33' W 122°42'6 6.2
2015-Feb-02 00:32N 45°37' W 122°48'15301.5
2015-Feb-02 00:29N 45°52' W 122°48'194640.1
2015-Feb-02 00:28N 45°33' W 122°42'34630.9
2015-Feb-02 00:25N 46°05' W 122°56'0 0.0
2015-Feb-01 23:31N 46°05' W 122°56'14340.2
2015-Feb-01 23:29N 45°52' W 122°48'194641.5
2015-Feb-01 23:28N 45°33' W 122°42'6125.6
2015-Feb-01 23:26N 45°37' W 122°48'0 0.0
2015-Feb-01 22:32N 45°37' W 122°48'293969.2
2015-Feb-01 22:31N 46°05' W 122°56'14344.7
2015-Feb-01 22:29N 45°52' W 122°48'19184.7
2015-Feb-01 22:22N 45°33' W 122°42'6 6.9
2015-Feb-01 21:32N 45°37' W 122°48'294691.8
2015-Feb-01 21:31N 46°05' W 122°56'14338.1
2015-Feb-01 21:29N 45°52' W 122°48'14 0.6
2015-Jan-31 21:26N 46°05' W 122°56'  
Track history (hours):
 
Tides and Currents Weather Stations Pressure Air Temp Water Temp Dewpoint Dewpoint Depression Visibility Wind Speed Wind Dir Waves Ship Positions

Zarling

Owner: Clean Rivers Co-op, Portland, OR. More information available from US FCC via Universal Licensing System.

Last reported at 2015-Feb-10 16:33 UTC. Time now 2015-Mar-05 22:33 UTC.
Position N 45°52' W 122°48'.
Warning: this ship's position is 23 days out of date.

Length 12 m.

Type: Pollution control. MMSI: 3699126.

Date/timePositionNaut miles runAvg speedWind from/ knotsBaromVisibWave heightAir tempDewpointWater temp
2015-Feb-10 16:33N 45°52' W 122°48'1468.6
2015-Feb-10 16:20N 46°05' W 122°56'29151.1
2015-Feb-10 16:09N 45°37' W 122°48'434287.0
2015-Feb-10 16:08N 46°12' W 123°23'47697.6
2015-Feb-10 16:04N 45°34' W 122°43'0 0.0
2015-Feb-10 15:31N 45°34' W 122°43'322851.5
2015-Feb-10 15:30N 46°05' W 122°56'141531.3
2015-Feb-10 15:30N 45°52' W 122°48'15145.1
2015-Feb-10 15:24N 45°37' W 122°48'43268.9
2015-Feb-10 15:14N 46°12' W 123°23'4766.1
2015-Feb-10 14:31N 45°34' W 122°43'322997.7
2015-Feb-10 14:30N 46°05' W 122°56'141407.1
2015-Feb-10 14:30N 45°52' W 122°48'1598.1
2015-Feb-10 14:21N 45°37' W 122°48'4353.0
2015-Feb-10 13:32N 46°12' W 123°23'20718.5
2015-Feb-10 13:30N 46°05' W 122°56'32363.1
2015-Feb-10 13:25N 45°34' W 122°43'18850.4
2015-Feb-10 13:24N 45°52' W 122°48'15291.7
2015-Feb-10 13:21N 45°37' W 122°48'  
2015-Feb-04 05:19N 45°33' W 122°42'0 0.0
2015-Feb-04 04:31N 45°33' W 122°42'6108.2
2015-Feb-04 04:28N 45°37' W 122°48'1599.4
2015-Feb-04 04:19N 45°52' W 122°48'1417.0
2015-Feb-04 03:28N 46°05' W 122°56'34137.3
2015-Feb-04 03:13N 45°33' W 122°42'6 6.9
2015-Feb-04 02:22N 45°37' W 122°48'2934406.6
2015-Feb-04 02:22N 46°05' W 122°56'14299.1
2015-Feb-04 02:19N 45°52' W 122°48'15 1.9
2015-Feb-03 18:28N 45°37' W 122°48'15299.9
2015-Feb-03 18:25N 45°52' W 122°48'14275.4
2015-Feb-03 18:22N 46°05' W 122°56'3439.8
2015-Feb-03 17:31N 45°33' W 122°42'195800.1
2015-Feb-03 17:31N 45°52' W 122°48'15296.5
2015-Feb-03 17:28N 45°37' W 122°48'2917199.7
2015-Feb-03 17:28N 46°05' W 122°56'3435.6
2015-Feb-03 16:31N 45°33' W 122°42'198700.2
2015-Feb-03 16:31N 45°52' W 122°48'14275.5
2015-Feb-03 16:28N 46°05' W 122°56'29291.5
2015-Feb-03 16:22N 45°37' W 122°48'6 6.9
2015-Feb-03 15:31N 45°33' W 122°42'1911603.7
2015-Feb-03 15:31N 45°52' W 122°48'15298.4
2015-Feb-03 15:28N 45°37' W 122°48'2910322.0
2015-Feb-03 15:28N 46°05' W 122°56'29 0.9
2015-Feb-02 07:32N 45°37' W 122°48'294691.8
2015-Feb-02 07:31N 46°05' W 122°56'1459.4
2015-Feb-02 07:17N 45°52' W 122°48'1519.7
2015-Feb-02 06:31N 45°37' W 122°48'295432.6
2015-Feb-02 06:31N 46°05' W 122°56'1459.3
2015-Feb-02 06:17N 45°52' W 122°48'1519.8
2015-Feb-02 05:32N 45°37' W 122°48'294486.9
2015-Feb-02 05:31N 46°05' W 122°56'14335.9
2015-Feb-02 05:29N 45°52' W 122°48'1415.1
2015-Feb-02 04:31N 46°05' W 122°56'29308.1
2015-Feb-02 04:26N 45°37' W 122°48'15298.4
2015-Feb-02 04:23N 45°52' W 122°48'0 0.0
2015-Feb-02 03:29N 45°52' W 122°48'14249.1
2015-Feb-02 03:25N 46°05' W 122°56'34725.3
2015-Feb-02 03:22N 45°33' W 122°42'640.0
2015-Feb-02 03:14N 45°37' W 122°48'0 0.0
2015-Feb-02 02:32N 45°37' W 122°48'293686.4
2015-Feb-02 02:31N 46°05' W 122°56'34725.3
2015-Feb-02 02:28N 45°33' W 122°42'19200.0
2015-Feb-02 02:23N 45°52' W 122°48'1517.4
2015-Feb-02 01:32N 45°37' W 122°48'294487.8
2015-Feb-02 01:31N 46°05' W 122°56'14340.3
2015-Feb-02 01:29N 45°52' W 122°48'195353.9
2015-Feb-02 01:28N 45°33' W 122°42'6 6.2
2015-Feb-02 00:32N 45°37' W 122°48'15301.5
2015-Feb-02 00:29N 45°52' W 122°48'194640.1
2015-Feb-02 00:28N 45°33' W 122°42'34630.9
2015-Feb-02 00:25N 46°05' W 122°56'0 0.0
2015-Feb-01 23:31N 46°05' W 122°56'14340.2
2015-Feb-01 23:29N 45°52' W 122°48'194641.5
2015-Feb-01 23:28N 45°33' W 122°42'6125.6
2015-Feb-01 23:26N 45°37' W 122°48'0 0.0
2015-Feb-01 22:32N 45°37' W 122°48'293969.2
2015-Feb-01 22:31N 46°05' W 122°56'14344.7
2015-Feb-01 22:29N 45°52' W 122°48'19184.7
2015-Feb-01 22:22N 45°33' W 122°42'6 6.9
2015-Feb-01 21:32N 45°37' W 122°48'294691.8
2015-Feb-01 21:31N 46°05' W 122°56'14338.1
2015-Feb-01 21:29N 45°52' W 122°48'14 0.6
2015-Jan-31 21:26N 46°05' W 122°56'  

Dump ship's entire track history